sensor_id;sensor_type;location;lat;lon;timestamp;P1;durP1;ratioP1;P2;durP2;ratioP2
5127;SDS011;2582;48.770;9.190;2023-12-07T00:02:11;9.27;;;8.27;;
5127;SDS011;2582;48.770;9.190;2023-12-07T00:04:38;8.80;;;7.90;;
5127;SDS011;2582;48.770;9.190;2023-12-07T00:07:03;8.70;;;7.80;;
5127;SDS011;2582;48.770;9.190;2023-12-07T00:09:29;8.80;;;7.87;;
5127;SDS011;2582;48.770;9.190;2023-12-07T00:11:54;8.90;;;8.00;;
5127;SDS011;2582;48.770;9.190;2023-12-07T00:14:20;8.20;;;7.40;;
5127;SDS011;2582;48.770;9.190;2023-12-07T00:16:46;8.97;;;8.03;;
5127;SDS011;2582;48.770;9.190;2023-12-07T00:19:12;8.20;;;7.40;;
5127;SDS011;2582;48.770;9.190;2023-12-07T00:21:37;9.70;;;7.80;;
5127;SDS011;2582;48.770;9.190;2023-12-07T00:24:03;9.10;;;7.50;;
5127;SDS011;2582;48.770;9.190;2023-12-07T00:26:29;9.67;;;7.40;;
5127;SDS011;2582;48.770;9.190;2023-12-07T00:28:54;7.77;;;6.50;;
5127;SDS011;2582;48.770;9.190;2023-12-07T00:31:20;7.10;;;6.40;;
5127;SDS011;2582;48.770;9.190;2023-12-07T00:33:45;7.23;;;6.53;;
5127;SDS011;2582;48.770;9.190;2023-12-07T00:36:11;7.03;;;6.43;;
5127;SDS011;2582;48.770;9.190;2023-12-07T00:38:37;8.47;;;7.10;;
5127;SDS011;2582;48.770;9.190;2023-12-07T00:41:02;10.30;;;7.33;;
5127;SDS011;2582;48.770;9.190;2023-12-07T00:43:28;8.60;;;7.00;;
5127;SDS011;2582;48.770;9.190;2023-12-07T00:45:54;7.70;;;6.70;;
5127;SDS011;2582;48.770;9.190;2023-12-07T00:48:19;6.93;;;6.23;;
5127;SDS011;2582;48.770;9.190;2023-12-07T00:50:45;7.37;;;6.57;;
5127;SDS011;2582;48.770;9.190;2023-12-07T00:53:11;9.33;;;6.83;;
5127;SDS011;2582;48.770;9.190;2023-12-07T00:55:36;8.03;;;7.23;;
5127;SDS011;2582;48.770;9.190;2023-12-07T00:58:02;9.77;;;6.63;;
5127;SDS011;2582;48.770;9.190;2023-12-07T01:00:27;6.60;;;6.00;;
5127;SDS011;2582;48.770;9.190;2023-12-07T01:02:53;7.37;;;6.50;;
5127;SDS011;2582;48.770;9.190;2023-12-07T01:05:18;7.27;;;6.60;;
5127;SDS011;2582;48.770;9.190;2023-12-07T01:07:44;7.90;;;7.10;;
5127;SDS011;2582;48.770;9.190;2023-12-07T01:10:09;6.97;;;6.03;;
5127;SDS011;2582;48.770;9.190;2023-12-07T01:12:35;8.47;;;6.80;;
5127;SDS011;2582;48.770;9.190;2023-12-07T01:15:00;7.47;;;5.93;;
5127;SDS011;2582;48.770;9.190;2023-12-07T01:17:26;7.87;;;6.37;;
5127;SDS011;2582;48.770;9.190;2023-12-07T01:19:52;9.47;;;6.20;;
5127;SDS011;2582;48.770;9.190;2023-12-07T01:22:17;6.63;;;6.03;;
5127;SDS011;2582;48.770;9.190;2023-12-07T01:24:43;6.23;;;5.63;;
5127;SDS011;2582;48.770;9.190;2023-12-07T01:27:09;8.20;;;5.70;;
5127;SDS011;2582;48.770;9.190;2023-12-07T01:29:34;7.20;;;6.47;;
5127;SDS011;2582;48.770;9.190;2023-12-07T01:32:00;7.30;;;6.20;;
5127;SDS011;2582;48.770;9.190;2023-12-07T01:34:25;7.00;;;6.20;;
5127;SDS011;2582;48.770;9.190;2023-12-07T01:36:51;6.13;;;5.53;;
5127;SDS011;2582;48.770;9.190;2023-12-07T01:39:16;5.90;;;5.27;;
5127;SDS011;2582;48.770;9.190;2023-12-07T01:41:42;7.43;;;6.37;;
5127;SDS011;2582;48.770;9.190;2023-12-07T01:44:08;6.43;;;5.80;;
5127;SDS011;2582;48.770;9.190;2023-12-07T01:46:34;6.00;;;5.40;;
5127;SDS011;2582;48.770;9.190;2023-12-07T01:49:00;7.10;;;5.70;;
5127;SDS011;2582;48.770;9.190;2023-12-07T01:51:26;6.23;;;5.63;;
5127;SDS011;2582;48.770;9.190;2023-12-07T01:53:52;6.47;;;5.80;;
5127;SDS011;2582;48.770;9.190;2023-12-07T01:56:18;6.97;;;5.03;;
5127;SDS011;2582;48.770;9.190;2023-12-07T01:58:44;5.50;;;5.00;;
5127;SDS011;2582;48.770;9.190;2023-12-07T02:01:10;6.20;;;5.60;;
5127;SDS011;2582;48.770;9.190;2023-12-07T02:03:39;6.67;;;5.97;;
5127;SDS011;2582;48.770;9.190;2023-12-07T02:06:05;7.13;;;5.57;;
5127;SDS011;2582;48.770;9.190;2023-12-07T02:08:31;6.67;;;5.30;;
5127;SDS011;2582;48.770;9.190;2023-12-07T02:10:56;7.93;;;5.50;;
5127;SDS011;2582;48.770;9.190;2023-12-07T02:13:22;7.87;;;5.27;;
5127;SDS011;2582;48.770;9.190;2023-12-07T02:15:48;5.60;;;4.97;;
5127;SDS011;2582;48.770;9.190;2023-12-07T02:23:49;5.03;;;4.53;;
5127;SDS011;2582;48.770;9.190;2023-12-07T02:26:18;7.57;;;5.20;;
5127;SDS011;2582;48.770;9.190;2023-12-07T02:28:46;6.80;;;5.73;;
5127;SDS011;2582;48.770;9.190;2023-12-07T02:31:12;6.93;;;6.20;;
5127;SDS011;2582;48.770;9.190;2023-12-07T02:33:38;7.73;;;5.43;;
5127;SDS011;2582;48.770;9.190;2023-12-07T02:36:04;7.70;;;5.60;;
5127;SDS011;2582;48.770;9.190;2023-12-07T02:38:30;5.97;;;5.37;;
5127;SDS011;2582;48.770;9.190;2023-12-07T02:40:56;6.93;;;6.27;;
5127;SDS011;2582;48.770;9.190;2023-12-07T02:43:23;9.63;;;6.23;;
5127;SDS011;2582;48.770;9.190;2023-12-07T02:45:49;7.87;;;6.10;;
5127;SDS011;2582;48.770;9.190;2023-12-07T02:48:15;7.00;;;6.27;;
5127;SDS011;2582;48.770;9.190;2023-12-07T02:50:42;7.00;;;6.20;;
5127;SDS011;2582;48.770;9.190;2023-12-07T02:53:08;7.30;;;6.60;;
5127;SDS011;2582;48.770;9.190;2023-12-07T02:55:33;7.97;;;6.77;;
5127;SDS011;2582;48.770;9.190;2023-12-07T02:57:59;7.73;;;6.50;;
5127;SDS011;2582;48.770;9.190;2023-12-07T03:00:25;5.97;;;5.37;;
5127;SDS011;2582;48.770;9.190;2023-12-07T03:02:50;6.73;;;6.00;;
5127;SDS011;2582;48.770;9.190;2023-12-07T03:05:16;8.73;;;6.60;;
5127;SDS011;2582;48.770;9.190;2023-12-07T03:07:44;8.20;;;6.47;;
5127;SDS011;2582;48.770;9.190;2023-12-07T03:10:10;7.93;;;7.07;;
5127;SDS011;2582;48.770;9.190;2023-12-07T03:12:35;7.47;;;6.40;;
5127;SDS011;2582;48.770;9.190;2023-12-07T03:15:01;11.70;;;8.93;;
5127;SDS011;2582;48.770;9.190;2023-12-07T03:17:26;8.27;;;7.47;;
5127;SDS011;2582;48.770;9.190;2023-12-07T03:19:52;7.93;;;6.83;;
5127;SDS011;2582;48.770;9.190;2023-12-07T03:22:17;7.37;;;6.40;;
5127;SDS011;2582;48.770;9.190;2023-12-07T03:24:45;7.07;;;6.37;;
5127;SDS011;2582;48.770;9.190;2023-12-07T03:27:12;8.87;;;7.07;;
5127;SDS011;2582;48.770;9.190;2023-12-07T03:29:38;9.20;;;6.20;;
5127;SDS011;2582;48.770;9.190;2023-12-07T03:32:03;7.37;;;5.67;;
5127;SDS011;2582;48.770;9.190;2023-12-07T03:34:29;7.27;;;6.47;;
5127;SDS011;2582;48.770;9.190;2023-12-07T03:36:55;7.63;;;5.53;;
5127;SDS011;2582;48.770;9.190;2023-12-07T03:39:20;7.97;;;6.57;;
5127;SDS011;2582;48.770;9.190;2023-12-07T03:41:50;7.40;;;6.47;;
5127;SDS011;2582;48.770;9.190;2023-12-07T03:44:16;7.00;;;6.30;;
5127;SDS011;2582;48.770;9.190;2023-12-07T03:46:41;7.30;;;6.60;;
5127;SDS011;2582;48.770;9.190;2023-12-07T03:49:07;8.50;;;7.20;;
5127;SDS011;2582;48.770;9.190;2023-12-07T03:51:32;7.33;;;6.53;;
5127;SDS011;2582;48.770;9.190;2023-12-07T03:54:00;13.23;;;7.97;;
5127;SDS011;2582;48.770;9.190;2023-12-07T03:56:29;7.77;;;6.80;;
5127;SDS011;2582;48.770;9.190;2023-12-07T03:58:55;7.30;;;6.60;;
5127;SDS011;2582;48.770;9.190;2023-12-07T04:01:25;8.40;;;6.90;;
5127;SDS011;2582;48.770;9.190;2023-12-07T04:03:52;7.37;;;6.67;;
5127;SDS011;2582;48.770;9.190;2023-12-07T04:06:18;7.87;;;6.83;;
5127;SDS011;2582;48.770;9.190;2023-12-07T04:08:44;12.90;;;8.00;;
5127;SDS011;2582;48.770;9.190;2023-12-07T04:11:10;7.33;;;6.60;;
5127;SDS011;2582;48.770;9.190;2023-12-07T04:13:36;10.33;;;7.37;;
5127;SDS011;2582;48.770;9.190;2023-12-07T04:16:02;7.93;;;7.13;;
5127;SDS011;2582;48.770;9.190;2023-12-07T04:18:28;8.20;;;7.13;;
5127;SDS011;2582;48.770;9.190;2023-12-07T04:20:54;9.83;;;7.90;;
5127;SDS011;2582;48.770;9.190;2023-12-07T04:23:20;8.37;;;7.37;;
5127;SDS011;2582;48.770;9.190;2023-12-07T04:25:45;9.53;;;7.30;;
5127;SDS011;2582;48.770;9.190;2023-12-07T04:28:11;9.90;;;8.53;;
5127;SDS011;2582;48.770;9.190;2023-12-07T04:30:36;10.80;;;9.13;;
5127;SDS011;2582;48.770;9.190;2023-12-07T04:33:02;8.50;;;7.47;;
5127;SDS011;2582;48.770;9.190;2023-12-07T04:35:28;10.77;;;8.07;;
5127;SDS011;2582;48.770;9.190;2023-12-07T04:37:54;11.23;;;7.63;;
5127;SDS011;2582;48.770;9.190;2023-12-07T04:40:19;7.53;;;6.77;;
5127;SDS011;2582;48.770;9.190;2023-12-07T04:42:45;9.37;;;8.03;;
5127;SDS011;2582;48.770;9.190;2023-12-07T04:45:11;10.17;;;8.80;;
5127;SDS011;2582;48.770;9.190;2023-12-07T04:47:37;10.70;;;9.47;;
5127;SDS011;2582;48.770;9.190;2023-12-07T04:50:02;12.33;;;9.93;;
5127;SDS011;2582;48.770;9.190;2023-12-07T04:52:28;10.07;;;8.60;;
5127;SDS011;2582;48.770;9.190;2023-12-07T04:54:54;16.00;;;12.67;;
5127;SDS011;2582;48.770;9.190;2023-12-07T04:57:19;10.97;;;9.80;;
5127;SDS011;2582;48.770;9.190;2023-12-07T04:59:45;15.10;;;11.97;;
5127;SDS011;2582;48.770;9.190;2023-12-07T05:02:13;10.97;;;9.10;;
5127;SDS011;2582;48.770;9.190;2023-12-07T05:04:39;10.83;;;9.30;;
5127;SDS011;2582;48.770;9.190;2023-12-07T05:07:05;12.00;;;9.57;;
5127;SDS011;2582;48.770;9.190;2023-12-07T05:09:30;10.17;;;8.37;;
5127;SDS011;2582;48.770;9.190;2023-12-07T05:11:56;9.70;;;8.50;;
5127;SDS011;2582;48.770;9.190;2023-12-07T05:14:23;9.80;;;8.90;;
5127;SDS011;2582;48.770;9.190;2023-12-07T05:16:48;9.70;;;8.67;;
5127;SDS011;2582;48.770;9.190;2023-12-07T05:19:18;9.50;;;8.50;;
5127;SDS011;2582;48.770;9.190;2023-12-07T05:21:45;11.00;;;8.40;;
5127;SDS011;2582;48.770;9.190;2023-12-07T05:24:12;10.17;;;9.10;;
5127;SDS011;2582;48.770;9.190;2023-12-07T05:26:37;16.60;;;10.67;;
5127;SDS011;2582;48.770;9.190;2023-12-07T05:29:03;10.87;;;9.30;;
5127;SDS011;2582;48.770;9.190;2023-12-07T05:31:29;11.50;;;9.30;;
5127;SDS011;2582;48.770;9.190;2023-12-07T05:33:55;10.70;;;9.60;;
5127;SDS011;2582;48.770;9.190;2023-12-07T05:36:20;12.17;;;9.10;;
5127;SDS011;2582;48.770;9.190;2023-12-07T05:38:46;10.13;;;8.67;;
5127;SDS011;2582;48.770;9.190;2023-12-07T05:41:11;11.77;;;10.23;;
5127;SDS011;2582;48.770;9.190;2023-12-07T05:43:40;10.27;;;7.93;;
5127;SDS011;2582;48.770;9.190;2023-12-07T05:46:06;9.97;;;8.90;;
5127;SDS011;2582;48.770;9.190;2023-12-07T05:48:32;13.87;;;10.43;;
5127;SDS011;2582;48.770;9.190;2023-12-07T05:50:58;12.53;;;9.70;;
5127;SDS011;2582;48.770;9.190;2023-12-07T05:53:24;10.03;;;8.83;;
5127;SDS011;2582;48.770;9.190;2023-12-07T05:55:49;10.97;;;9.27;;
5127;SDS011;2582;48.770;9.190;2023-12-07T05:58:15;11.97;;;9.83;;
5127;SDS011;2582;48.770;9.190;2023-12-07T06:00:42;12.10;;;10.20;;
5127;SDS011;2582;48.770;9.190;2023-12-07T06:03:08;12.93;;;9.03;;
5127;SDS011;2582;48.770;9.190;2023-12-07T06:05:36;12.30;;;10.53;;
5127;SDS011;2582;48.770;9.190;2023-12-07T06:08:02;10.27;;;8.97;;
5127;SDS011;2582;48.770;9.190;2023-12-07T06:10:29;11.47;;;9.67;;
5127;SDS011;2582;48.770;9.190;2023-12-07T06:12:55;11.47;;;9.23;;
5127;SDS011;2582;48.770;9.190;2023-12-07T06:15:21;11.37;;;8.60;;
5127;SDS011;2582;48.770;9.190;2023-12-07T06:17:47;11.80;;;9.67;;
5127;SDS011;2582;48.770;9.190;2023-12-07T06:20:13;10.07;;;8.90;;
5127;SDS011;2582;48.770;9.190;2023-12-07T06:22:38;11.87;;;8.17;;
5127;SDS011;2582;48.770;9.190;2023-12-07T06:25:04;8.30;;;7.50;;
5127;SDS011;2582;48.770;9.190;2023-12-07T06:27:30;10.10;;;7.60;;
5127;SDS011;2582;48.770;9.190;2023-12-07T06:29:56;9.70;;;7.67;;
5127;SDS011;2582;48.770;9.190;2023-12-07T06:32:21;8.93;;;7.70;;
5127;SDS011;2582;48.770;9.190;2023-12-07T06:34:47;9.47;;;8.50;;
5127;SDS011;2582;48.770;9.190;2023-12-07T06:37:12;12.63;;;9.77;;
5127;SDS011;2582;48.770;9.190;2023-12-07T06:39:38;9.70;;;8.00;;
5127;SDS011;2582;48.770;9.190;2023-12-07T06:42:04;10.87;;;7.70;;
5127;SDS011;2582;48.770;9.190;2023-12-07T06:44:29;12.40;;;8.50;;
5127;SDS011;2582;48.770;9.190;2023-12-07T06:46:55;11.70;;;9.40;;
5127;SDS011;2582;48.770;9.190;2023-12-07T06:49:20;13.00;;;9.97;;
5127;SDS011;2582;48.770;9.190;2023-12-07T06:51:46;15.90;;;8.90;;
5127;SDS011;2582;48.770;9.190;2023-12-07T06:54:11;12.43;;;9.77;;
5127;SDS011;2582;48.770;9.190;2023-12-07T06:56:38;10.83;;;8.67;;
5127;SDS011;2582;48.770;9.190;2023-12-07T06:59:04;8.03;;;7.23;;
5127;SDS011;2582;48.770;9.190;2023-12-07T07:01:29;12.80;;;10.70;;
5127;SDS011;2582;48.770;9.190;2023-12-07T07:03:55;11.10;;;9.30;;
5127;SDS011;2582;48.770;9.190;2023-12-07T07:06:21;10.40;;;9.00;;
5127;SDS011;2582;48.770;9.190;2023-12-07T07:08:47;10.40;;;8.77;;
5127;SDS011;2582;48.770;9.190;2023-12-07T07:11:14;11.60;;;9.97;;
5127;SDS011;2582;48.770;9.190;2023-12-07T07:13:40;10.80;;;8.53;;
5127;SDS011;2582;48.770;9.190;2023-12-07T07:16:07;12.57;;;10.33;;
5127;SDS011;2582;48.770;9.190;2023-12-07T07:18:33;10.10;;;9.07;;
5127;SDS011;2582;48.770;9.190;2023-12-07T07:20:59;13.20;;;9.00;;
5127;SDS011;2582;48.770;9.190;2023-12-07T07:23:25;16.43;;;10.40;;
5127;SDS011;2582;48.770;9.190;2023-12-07T07:25:51;11.47;;;9.73;;
5127;SDS011;2582;48.770;9.190;2023-12-07T07:28:16;13.20;;;11.20;;
5127;SDS011;2582;48.770;9.190;2023-12-07T07:30:42;12.43;;;10.40;;
5127;SDS011;2582;48.770;9.190;2023-12-07T07:33:08;13.47;;;10.13;;
5127;SDS011;2582;48.770;9.190;2023-12-07T07:35:34;15.10;;;10.67;;
5127;SDS011;2582;48.770;9.190;2023-12-07T07:37:59;13.73;;;11.40;;
5127;SDS011;2582;48.770;9.190;2023-12-07T07:40:25;13.53;;;11.70;;
5127;SDS011;2582;48.770;9.190;2023-12-07T07:42:50;15.57;;;11.60;;
5127;SDS011;2582;48.770;9.190;2023-12-07T07:45:16;12.13;;;10.83;;
5127;SDS011;2582;48.770;9.190;2023-12-07T07:47:42;16.40;;;12.60;;
5127;SDS011;2582;48.770;9.190;2023-12-07T07:50:07;13.23;;;11.30;;
5127;SDS011;2582;48.770;9.190;2023-12-07T07:52:33;14.10;;;11.83;;
5127;SDS011;2582;48.770;9.190;2023-12-07T07:55:00;15.80;;;13.33;;
5127;SDS011;2582;48.770;9.190;2023-12-07T07:57:28;17.17;;;12.80;;
5127;SDS011;2582;48.770;9.190;2023-12-07T07:59:53;15.33;;;12.83;;
5127;SDS011;2582;48.770;9.190;2023-12-07T08:02:20;15.30;;;12.30;;
5127;SDS011;2582;48.770;9.190;2023-12-07T08:04:46;19.50;;;12.10;;
5127;SDS011;2582;48.770;9.190;2023-12-07T08:07:12;15.70;;;12.83;;
5127;SDS011;2582;48.770;9.190;2023-12-07T08:09:37;21.23;;;12.87;;
5127;SDS011;2582;48.770;9.190;2023-12-07T08:12:03;19.20;;;13.53;;
5127;SDS011;2582;48.770;9.190;2023-12-07T08:14:29;16.90;;;13.27;;
5127;SDS011;2582;48.770;9.190;2023-12-07T08:16:55;15.57;;;12.47;;
5127;SDS011;2582;48.770;9.190;2023-12-07T08:19:21;15.70;;;11.00;;
5127;SDS011;2582;48.770;9.190;2023-12-07T08:21:46;13.67;;;10.87;;
5127;SDS011;2582;48.770;9.190;2023-12-07T08:24:12;13.53;;;11.13;;
5127;SDS011;2582;48.770;9.190;2023-12-07T08:26:38;12.53;;;11.20;;
5127;SDS011;2582;48.770;9.190;2023-12-07T08:29:04;14.93;;;11.00;;
5127;SDS011;2582;48.770;9.190;2023-12-07T08:31:30;13.93;;;11.23;;
5127;SDS011;2582;48.770;9.190;2023-12-07T08:33:55;12.50;;;11.07;;
5127;SDS011;2582;48.770;9.190;2023-12-07T08:36:21;12.67;;;11.37;;
5127;SDS011;2582;48.770;9.190;2023-12-07T08:38:47;13.10;;;11.50;;
5127;SDS011;2582;48.770;9.190;2023-12-07T08:41:12;14.17;;;12.50;;
5127;SDS011;2582;48.770;9.190;2023-12-07T08:43:38;16.97;;;10.73;;
5127;SDS011;2582;48.770;9.190;2023-12-07T08:46:03;12.30;;;10.70;;
5127;SDS011;2582;48.770;9.190;2023-12-07T08:48:32;10.67;;;8.90;;
5127;SDS011;2582;48.770;9.190;2023-12-07T08:50:58;12.30;;;9.87;;
5127;SDS011;2582;48.770;9.190;2023-12-07T08:53:24;12.30;;;10.53;;
5127;SDS011;2582;48.770;9.190;2023-12-07T08:55:51;13.10;;;10.30;;
5127;SDS011;2582;48.770;9.190;2023-12-07T08:58:17;11.87;;;10.20;;
5127;SDS011;2582;48.770;9.190;2023-12-07T09:00:43;11.27;;;10.07;;
5127;SDS011;2582;48.770;9.190;2023-12-07T09:03:09;10.30;;;9.13;;
5127;SDS011;2582;48.770;9.190;2023-12-07T09:05:34;10.77;;;8.50;;
5127;SDS011;2582;48.770;9.190;2023-12-07T09:08:00;10.70;;;9.50;;
5127;SDS011;2582;48.770;9.190;2023-12-07T09:10:26;15.50;;;12.77;;
5127;SDS011;2582;48.770;9.190;2023-12-07T09:12:51;13.77;;;10.90;;
5127;SDS011;2582;48.770;9.190;2023-12-07T09:15:17;15.17;;;12.07;;
5127;SDS011;2582;48.770;9.190;2023-12-07T09:17:42;16.30;;;11.90;;
5127;SDS011;2582;48.770;9.190;2023-12-07T09:20:08;17.00;;;12.90;;
5127;SDS011;2582;48.770;9.190;2023-12-07T09:22:40;13.70;;;12.13;;
5127;SDS011;2582;48.770;9.190;2023-12-07T09:25:10;13.50;;;12.10;;
5127;SDS011;2582;48.770;9.190;2023-12-07T09:27:36;13.20;;;11.80;;
5127;SDS011;2582;48.770;9.190;2023-12-07T09:30:04;13.10;;;11.23;;
5127;SDS011;2582;48.770;9.190;2023-12-07T09:32:31;13.97;;;12.03;;
5127;SDS011;2582;48.770;9.190;2023-12-07T09:34:56;17.10;;;13.27;;
5127;SDS011;2582;48.770;9.190;2023-12-07T09:37:22;14.07;;;12.67;;
5127;SDS011;2582;48.770;9.190;2023-12-07T09:39:48;14.07;;;11.97;;
5127;SDS011;2582;48.770;9.190;2023-12-07T09:42:13;13.43;;;12.07;;
5127;SDS011;2582;48.770;9.190;2023-12-07T09:44:39;12.03;;;10.47;;
5127;SDS011;2582;48.770;9.190;2023-12-07T09:47:04;12.50;;;10.50;;
5127;SDS011;2582;48.770;9.190;2023-12-07T09:49:30;13.57;;;12.17;;
5127;SDS011;2582;48.770;9.190;2023-12-07T09:51:56;13.50;;;11.43;;
5127;SDS011;2582;48.770;9.190;2023-12-07T09:54:24;15.83;;;11.40;;
5127;SDS011;2582;48.770;9.190;2023-12-07T09:56:51;14.17;;;12.17;;
5127;SDS011;2582;48.770;9.190;2023-12-07T09:59:19;16.80;;;12.07;;
5127;SDS011;2582;48.770;9.190;2023-12-07T10:01:45;13.40;;;11.93;;
5127;SDS011;2582;48.770;9.190;2023-12-07T10:04:20;11.87;;;10.50;;
5127;SDS011;2582;48.770;9.190;2023-12-07T10:06:51;11.00;;;7.77;;
5127;SDS011;2582;48.770;9.190;2023-12-07T10:09:17;11.93;;;9.70;;
5127;SDS011;2582;48.770;9.190;2023-12-07T10:11:44;13.30;;;11.90;;
5127;SDS011;2582;48.770;9.190;2023-12-07T10:14:11;8.60;;;7.70;;
5127;SDS011;2582;48.770;9.190;2023-12-07T10:16:38;8.60;;;7.67;;
5127;SDS011;2582;48.770;9.190;2023-12-07T10:19:13;8.87;;;6.77;;
5127;SDS011;2582;48.770;9.190;2023-12-07T10:21:42;6.33;;;5.70;;
5127;SDS011;2582;48.770;9.190;2023-12-07T10:24:08;5.80;;;5.20;;
5127;SDS011;2582;48.770;9.190;2023-12-07T10:26:34;6.30;;;5.10;;
5127;SDS011;2582;48.770;9.190;2023-12-07T10:29:01;6.33;;;4.77;;
5127;SDS011;2582;48.770;9.190;2023-12-07T10:31:30;6.50;;;5.07;;
5127;SDS011;2582;48.770;9.190;2023-12-07T10:33:56;6.30;;;5.70;;
5127;SDS011;2582;48.770;9.190;2023-12-07T10:36:21;6.47;;;5.87;;
5127;SDS011;2582;48.770;9.190;2023-12-07T10:38:48;7.77;;;6.07;;
5127;SDS011;2582;48.770;9.190;2023-12-07T10:41:16;8.23;;;5.87;;
5127;SDS011;2582;48.770;9.190;2023-12-07T10:43:44;10.27;;;6.13;;
5127;SDS011;2582;48.770;9.190;2023-12-07T10:46:16;6.97;;;5.80;;
5127;SDS011;2582;48.770;9.190;2023-12-07T10:48:44;7.07;;;5.33;;
5127;SDS011;2582;48.770;9.190;2023-12-07T10:51:13;7.07;;;6.03;;
5127;SDS011;2582;48.770;9.190;2023-12-07T10:53:47;5.30;;;4.20;;
5127;SDS011;2582;48.770;9.190;2023-12-07T10:56:16;5.53;;;4.90;;
5127;SDS011;2582;48.770;9.190;2023-12-07T10:59:05;5.93;;;4.63;;
5127;SDS011;2582;48.770;9.190;2023-12-07T11:01:33;5.30;;;4.30;;
5127;SDS011;2582;48.770;9.190;2023-12-07T11:04:00;7.40;;;4.50;;
5127;SDS011;2582;48.770;9.190;2023-12-07T11:06:26;10.40;;;3.80;;
5127;SDS011;2582;48.770;9.190;2023-12-07T11:08:55;3.37;;;3.03;;
5127;SDS011;2582;48.770;9.190;2023-12-07T11:11:29;6.73;;;4.40;;
5127;SDS011;2582;48.770;9.190;2023-12-07T11:14:05;3.60;;;2.80;;
5127;SDS011;2582;48.770;9.190;2023-12-07T11:16:33;3.20;;;2.90;;
5127;SDS011;2582;48.770;9.190;2023-12-07T11:19:01;6.53;;;2.37;;
5127;SDS011;2582;48.770;9.190;2023-12-07T11:21:29;2.57;;;2.37;;
5127;SDS011;2582;48.770;9.190;2023-12-07T11:23:55;2.80;;;2.53;;
5127;SDS011;2582;48.770;9.190;2023-12-07T11:26:24;4.50;;;2.43;;
5127;SDS011;2582;48.770;9.190;2023-12-07T11:28:50;4.63;;;3.37;;
5127;SDS011;2582;48.770;9.190;2023-12-07T11:31:16;4.40;;;3.20;;
5127;SDS011;2582;48.770;9.190;2023-12-07T11:33:42;4.00;;;2.83;;
5127;SDS011;2582;48.770;9.190;2023-12-07T11:36:08;5.70;;;3.50;;
5127;SDS011;2582;48.770;9.190;2023-12-07T11:38:39;4.63;;;3.40;;
5127;SDS011;2582;48.770;9.190;2023-12-07T11:41:29;4.83;;;3.97;;
5127;SDS011;2582;48.770;9.190;2023-12-07T11:43:58;4.53;;;4.07;;
5127;SDS011;2582;48.770;9.190;2023-12-07T11:46:23;4.40;;;4.00;;
5127;SDS011;2582;48.770;9.190;2023-12-07T11:48:49;5.30;;;3.53;;
5127;SDS011;2582;48.770;9.190;2023-12-07T11:51:15;5.10;;;3.93;;
5127;SDS011;2582;48.770;9.190;2023-12-07T11:53:42;4.07;;;3.70;;
5127;SDS011;2582;48.770;9.190;2023-12-07T11:56:08;4.60;;;3.70;;
5127;SDS011;2582;48.770;9.190;2023-12-07T11:58:36;5.30;;;3.73;;
5127;SDS011;2582;48.770;9.190;2023-12-07T12:01:03;5.93;;;3.97;;
5127;SDS011;2582;48.770;9.190;2023-12-07T12:03:30;4.33;;;3.73;;
5127;SDS011;2582;48.770;9.190;2023-12-07T12:05:57;4.37;;;3.97;;
5127;SDS011;2582;48.770;9.190;2023-12-07T12:08:23;7.70;;;4.50;;
5127;SDS011;2582;48.770;9.190;2023-12-07T12:10:49;7.93;;;4.20;;
5127;SDS011;2582;48.770;9.190;2023-12-07T12:13:17;3.80;;;3.50;;
5127;SDS011;2582;48.770;9.190;2023-12-07T12:15:43;4.97;;;3.77;;
5127;SDS011;2582;48.770;9.190;2023-12-07T12:18:11;4.70;;;4.20;;
5127;SDS011;2582;48.770;9.190;2023-12-07T12:20:39;4.73;;;4.33;;
5127;SDS011;2582;48.770;9.190;2023-12-07T12:23:05;7.60;;;5.47;;
5127;SDS011;2582;48.770;9.190;2023-12-07T12:25:30;5.63;;;5.07;;
5127;SDS011;2582;48.770;9.190;2023-12-07T12:27:58;5.30;;;4.77;;
5127;SDS011;2582;48.770;9.190;2023-12-07T12:30:27;6.40;;;5.20;;
5127;SDS011;2582;48.770;9.190;2023-12-07T12:32:53;5.63;;;4.97;;
5127;SDS011;2582;48.770;9.190;2023-12-07T12:35:21;5.80;;;5.20;;
5127;SDS011;2582;48.770;9.190;2023-12-07T12:37:47;7.57;;;5.40;;
5127;SDS011;2582;48.770;9.190;2023-12-07T12:40:15;7.00;;;4.90;;
5127;SDS011;2582;48.770;9.190;2023-12-07T12:42:48;5.40;;;4.90;;
5127;SDS011;2582;48.770;9.190;2023-12-07T12:45:15;6.50;;;5.90;;
5127;SDS011;2582;48.770;9.190;2023-12-07T12:47:43;5.93;;;5.33;;
5127;SDS011;2582;48.770;9.190;2023-12-07T12:50:10;6.00;;;5.40;;
5127;SDS011;2582;48.770;9.190;2023-12-07T12:52:57;5.90;;;5.30;;
5127;SDS011;2582;48.770;9.190;2023-12-07T12:55:25;6.03;;;5.50;;
5127;SDS011;2582;48.770;9.190;2023-12-07T12:57:51;5.97;;;5.47;;
5127;SDS011;2582;48.770;9.190;2023-12-07T13:00:17;9.60;;;7.07;;
5127;SDS011;2582;48.770;9.190;2023-12-07T13:02:43;8.57;;;6.03;;
5127;SDS011;2582;48.770;9.190;2023-12-07T13:05:08;6.57;;;5.90;;
5127;SDS011;2582;48.770;9.190;2023-12-07T13:07:34;5.93;;;5.33;;
5127;SDS011;2582;48.770;9.190;2023-12-07T13:10:00;12.50;;;5.97;;
5127;SDS011;2582;48.770;9.190;2023-12-07T13:12:26;7.43;;;6.60;;
5127;SDS011;2582;48.770;9.190;2023-12-07T13:14:53;7.17;;;6.43;;
5127;SDS011;2582;48.770;9.190;2023-12-07T13:17:19;7.47;;;6.40;;
5127;SDS011;2582;48.770;9.190;2023-12-07T13:19:44;8.93;;;6.93;;
5127;SDS011;2582;48.770;9.190;2023-12-07T13:22:10;6.80;;;6.20;;
5127;SDS011;2582;48.770;9.190;2023-12-07T13:24:35;8.90;;;7.37;;
5127;SDS011;2582;48.770;9.190;2023-12-07T13:27:01;7.47;;;6.77;;
5127;SDS011;2582;48.770;9.190;2023-12-07T13:29:27;8.73;;;6.20;;
5127;SDS011;2582;48.770;9.190;2023-12-07T13:31:52;9.47;;;7.17;;
5127;SDS011;2582;48.770;9.190;2023-12-07T13:34:18;10.50;;;6.80;;
5127;SDS011;2582;48.770;9.190;2023-12-07T13:36:43;6.63;;;5.87;;
5127;SDS011;2582;48.770;9.190;2023-12-07T13:39:09;6.10;;;5.30;;
5127;SDS011;2582;48.770;9.190;2023-12-07T13:41:37;7.70;;;6.90;;
5127;SDS011;2582;48.770;9.190;2023-12-07T13:44:03;7.97;;;6.07;;
5127;SDS011;2582;48.770;9.190;2023-12-07T13:46:30;10.50;;;7.40;;
5127;SDS011;2582;48.770;9.190;2023-12-07T13:48:56;7.43;;;6.73;;
5127;SDS011;2582;48.770;9.190;2023-12-07T13:51:22;10.23;;;7.90;;
5127;SDS011;2582;48.770;9.190;2023-12-07T13:53:48;6.70;;;6.10;;
5127;SDS011;2582;48.770;9.190;2023-12-07T13:56:13;6.80;;;6.10;;
5127;SDS011;2582;48.770;9.190;2023-12-07T13:58:39;6.43;;;5.63;;
5127;SDS011;2582;48.770;9.190;2023-12-07T14:01:05;5.43;;;4.90;;
5127;SDS011;2582;48.770;9.190;2023-12-07T14:03:31;6.20;;;4.83;;
5127;SDS011;2582;48.770;9.190;2023-12-07T14:05:57;8.00;;;4.50;;
5127;SDS011;2582;48.770;9.190;2023-12-07T14:08:23;7.90;;;5.20;;
5127;SDS011;2582;48.770;9.190;2023-12-07T14:10:51;8.37;;;5.60;;
5127;SDS011;2582;48.770;9.190;2023-12-07T14:13:16;6.40;;;4.97;;
5127;SDS011;2582;48.770;9.190;2023-12-07T14:15:42;5.67;;;4.43;;
5127;SDS011;2582;48.770;9.190;2023-12-07T14:18:08;4.67;;;3.90;;
5127;SDS011;2582;48.770;9.190;2023-12-07T14:20:33;3.30;;;3.00;;
5127;SDS011;2582;48.770;9.190;2023-12-07T14:22:59;4.83;;;2.73;;
5127;SDS011;2582;48.770;9.190;2023-12-07T14:25:30;3.20;;;2.77;;
5127;SDS011;2582;48.770;9.190;2023-12-07T14:27:55;5.30;;;3.90;;
5127;SDS011;2582;48.770;9.190;2023-12-07T14:30:21;9.83;;;4.43;;
5127;SDS011;2582;48.770;9.190;2023-12-07T14:32:47;5.10;;;4.57;;
5127;SDS011;2582;48.770;9.190;2023-12-07T14:35:16;5.73;;;4.10;;
5127;SDS011;2582;48.770;9.190;2023-12-07T14:37:45;4.07;;;3.30;;
5127;SDS011;2582;48.770;9.190;2023-12-07T14:40:11;5.80;;;4.97;;
5127;SDS011;2582;48.770;9.190;2023-12-07T14:42:39;6.10;;;4.30;;
5127;SDS011;2582;48.770;9.190;2023-12-07T14:45:05;6.10;;;4.70;;
5127;SDS011;2582;48.770;9.190;2023-12-07T14:47:31;6.60;;;5.27;;
5127;SDS011;2582;48.770;9.190;2023-12-07T14:49:56;6.10;;;4.50;;
5127;SDS011;2582;48.770;9.190;2023-12-07T14:52:22;7.53;;;5.40;;
5127;SDS011;2582;48.770;9.190;2023-12-07T14:54:49;4.90;;;4.30;;
5127;SDS011;2582;48.770;9.190;2023-12-07T14:57:15;6.03;;;5.13;;
5127;SDS011;2582;48.770;9.190;2023-12-07T14:59:40;6.20;;;4.60;;
5127;SDS011;2582;48.770;9.190;2023-12-07T15:02:06;6.93;;;3.90;;
5127;SDS011;2582;48.770;9.190;2023-12-07T15:04:31;5.43;;;4.00;;
5127;SDS011;2582;48.770;9.190;2023-12-07T15:06:57;7.10;;;3.67;;
5127;SDS011;2582;48.770;9.190;2023-12-07T15:09:23;6.77;;;4.13;;